createdAt,value
2023-05-19T00:01:37.665Z,1.10
2023-05-19T00:04:07.393Z,1.10
2023-05-19T00:06:38.584Z,1.00
2023-05-19T00:09:13.601Z,1.20
2023-05-19T00:11:47.576Z,1.00
2023-05-19T00:14:16.228Z,1.10
2023-05-19T00:16:52.354Z,1.17
2023-05-19T00:19:21.216Z,1.27
2023-05-19T00:21:54.664Z,1.00
2023-05-19T00:24:22.870Z,1.00
2023-05-19T00:26:52.582Z,1.00
2023-05-19T00:29:24.544Z,0.90
2023-05-19T00:31:54.413Z,1.00
2023-05-19T00:34:24.980Z,1.10
2023-05-19T00:36:53.546Z,1.07
2023-05-19T00:39:30.136Z,1.00
2023-05-19T00:42:00.981Z,1.00
2023-05-19T00:44:29.035Z,0.90
2023-05-19T00:46:59.869Z,1.03
2023-05-19T00:49:29.014Z,0.80
2023-05-19T00:51:58.395Z,1.10
2023-05-19T00:54:32.604Z,1.03
2023-05-19T00:57:01.962Z,1.20
2023-05-19T00:59:35.949Z,1.00
2023-05-19T01:02:05.999Z,1.10
2023-05-19T01:04:35.168Z,0.90
2023-05-19T01:07:09.536Z,0.90
2023-05-19T01:09:42.027Z,1.07
2023-05-19T01:12:12.190Z,0.97
2023-05-19T01:14:42.368Z,0.90
2023-05-19T01:17:23.110Z,1.00
2023-05-19T01:20:03.246Z,0.90
2023-05-19T01:22:45.278Z,0.90
2023-05-19T01:25:46.440Z,1.00
2023-05-19T01:29:07.387Z,1.00
2023-05-19T01:31:40.048Z,1.10
2023-05-19T01:34:09.576Z,1.50
2023-05-19T01:36:42.278Z,1.90
2023-05-19T01:39:10.872Z,2.17
2023-05-19T01:41:43.574Z,3.17
2023-05-19T01:44:12.056Z,3.20
2023-05-19T01:46:43.007Z,2.97
2023-05-19T01:49:11.379Z,2.03
2023-05-19T01:51:39.617Z,1.80
2023-05-19T01:54:10.878Z,1.20
2023-05-19T01:56:49.858Z,1.30
2023-05-19T01:59:45.398Z,1.50
2023-05-19T02:02:26.570Z,0.90
2023-05-19T02:05:08.457Z,0.83
2023-05-19T02:07:43.712Z,0.83
2023-05-19T02:10:17.808Z,1.00
2023-05-19T02:12:49.681Z,1.13
2023-05-19T02:15:19.947Z,1.00
2023-05-19T02:17:57.003Z,0.90
2023-05-19T02:20:25.073Z,0.90
2023-05-19T02:22:56.042Z,1.00
2023-05-19T02:25:25.093Z,1.10
2023-05-19T02:27:57.803Z,0.80
2023-05-19T02:30:29.375Z,1.00
2023-05-19T02:32:58.955Z,1.13
2023-05-19T02:35:27.946Z,0.90
2023-05-19T02:37:56.011Z,1.10
2023-05-19T02:40:24.256Z,1.10
2023-05-19T02:42:52.103Z,0.90
2023-05-19T02:45:20.167Z,1.07
2023-05-19T02:47:48.488Z,1.03
2023-05-19T02:50:41.488Z,1.03
2023-05-19T02:53:11.657Z,1.07
2023-05-19T02:55:41.295Z,0.80
2023-05-19T02:58:09.200Z,1.03
2023-05-19T03:00:49.422Z,0.93
2023-05-19T03:03:18.678Z,0.97
2023-05-19T03:05:48.307Z,1.20
2023-05-19T03:08:17.159Z,1.10
2023-05-19T03:10:46.991Z,1.10
2023-05-19T03:13:17.044Z,1.03
2023-05-19T03:15:47.640Z,0.90
2023-05-19T03:18:16.656Z,1.20
2023-05-19T03:20:47.575Z,1.13
2023-05-19T03:23:17.535Z,1.13
2023-05-19T03:25:46.745Z,1.13
2023-05-19T03:28:14.924Z,1.00
2023-05-19T03:30:48.211Z,1.00
2023-05-19T03:33:16.384Z,1.00
2023-05-19T03:35:48.200Z,1.37
2023-05-19T03:38:22.919Z,0.83
2023-05-19T03:40:52.062Z,1.00
2023-05-19T03:43:20.135Z,1.07
2023-05-19T03:45:47.937Z,1.00
2023-05-19T03:48:21.044Z,1.40
2023-05-19T03:50:59.562Z,1.10
2023-05-19T03:53:36.233Z,1.27
2023-05-19T03:56:07.976Z,1.07
2023-05-19T03:58:46.482Z,1.10
2023-05-19T04:01:20.710Z,1.20
2023-05-19T04:03:49.256Z,1.23
2023-05-19T04:06:17.535Z,1.53
2023-05-19T04:08:49.742Z,1.23
2023-05-19T04:11:21.724Z,0.97
2023-05-19T04:13:52.033Z,1.10
2023-05-19T04:16:22.794Z,1.27
2023-05-19T04:18:50.895Z,0.97
2023-05-19T04:21:22.402Z,1.13
2023-05-19T04:23:51.892Z,1.30
2023-05-19T04:26:22.647Z,1.40
2023-05-19T04:29:03.308Z,1.10
2023-05-19T04:31:34.435Z,1.10
2023-05-19T04:34:03.378Z,1.00
2023-05-19T04:36:32.221Z,1.13
2023-05-19T04:39:05.813Z,1.50
2023-05-19T04:41:35.216Z,1.73
2023-05-19T04:44:06.512Z,1.30
2023-05-19T04:46:37.638Z,1.30
2023-05-19T04:49:05.887Z,1.27
2023-05-19T04:51:36.646Z,1.20
2023-05-19T04:54:10.295Z,1.37
2023-05-19T04:56:38.780Z,1.20
2023-05-19T04:59:07.021Z,1.30
2023-05-19T05:01:41.482Z,1.13
2023-05-19T05:04:09.969Z,1.40
2023-05-19T05:06:41.190Z,1.33
2023-05-19T05:09:11.673Z,1.53
2023-05-19T05:11:41.279Z,1.73
2023-05-19T05:14:10.276Z,1.50
2023-05-19T05:16:39.681Z,1.60
2023-05-19T05:19:11.982Z,1.30
2023-05-19T05:21:41.814Z,1.57
2023-05-19T05:24:14.052Z,1.47
2023-05-19T05:26:43.180Z,1.37
2023-05-19T05:29:11.619Z,1.50
2023-05-19T05:31:41.220Z,1.50
2023-05-19T05:34:09.393Z,1.40
2023-05-19T05:36:37.697Z,1.50
2023-05-19T05:39:06.158Z,1.60
2023-05-19T05:41:36.334Z,1.47
2023-05-19T05:44:05.271Z,1.40
2023-05-19T05:46:34.582Z,1.73
2023-05-19T05:49:04.295Z,1.43
2023-05-19T05:51:33.256Z,1.40
2023-05-19T05:54:03.320Z,1.40
2023-05-19T05:56:34.770Z,1.47
2023-05-19T05:59:04.467Z,1.47
2023-05-19T06:01:34.834Z,1.63
2023-05-19T06:04:11.001Z,1.60
2023-05-19T06:06:39.322Z,1.33
2023-05-19T06:09:08.030Z,1.63
2023-05-19T06:11:36.946Z,1.33
2023-05-19T06:14:07.547Z,1.50
2023-05-19T06:16:35.405Z,1.40
2023-05-19T06:19:03.308Z,1.23
2023-05-19T06:21:33.142Z,1.50
2023-05-19T06:24:02.403Z,1.80
2023-05-19T06:26:33.083Z,1.40
2023-05-19T06:29:02.913Z,1.03
2023-05-19T06:31:34.438Z,1.50
2023-05-19T06:34:05.908Z,1.30
2023-05-19T06:36:35.452Z,1.30
2023-05-19T06:39:04.800Z,1.40
2023-05-19T06:41:33.048Z,1.43
2023-05-19T06:44:00.876Z,1.47
2023-05-19T06:46:29.304Z,2.07
2023-05-19T06:48:59.179Z,1.50
2023-05-19T06:51:27.267Z,1.50
2023-05-19T06:53:55.676Z,1.73
2023-05-19T06:56:23.949Z,1.40
2023-05-19T06:58:54.002Z,1.53
2023-05-19T07:01:21.857Z,1.60
2023-05-19T07:03:50.844Z,1.50
2023-05-19T07:06:20.100Z,1.10
2023-05-19T07:08:48.348Z,1.60
2023-05-19T07:11:16.650Z,1.53
2023-05-19T07:13:44.957Z,1.40
2023-05-19T07:16:12.853Z,1.43
2023-05-19T07:18:40.977Z,1.43
2023-05-19T07:21:08.893Z,1.23
2023-05-19T07:23:37.951Z,1.43
2023-05-19T07:26:05.885Z,1.27
2023-05-19T07:28:34.346Z,1.77
2023-05-19T07:31:02.461Z,1.50
2023-05-19T07:33:30.479Z,1.40
2023-05-19T07:35:58.476Z,1.40
2023-05-19T07:38:26.329Z,1.25
2023-05-19T07:40:56.809Z,1.13
2023-05-19T07:43:25.806Z,1.10
2023-05-19T07:45:56.326Z,1.80
2023-05-19T07:48:25.736Z,1.13
2023-05-19T07:50:54.151Z,1.30
2023-05-19T07:53:22.772Z,0.90
2023-05-19T07:55:50.900Z,1.15
2023-05-19T07:58:20.726Z,1.17
2023-05-19T08:00:48.505Z,1.00
2023-05-19T08:03:18.367Z,1.10
2023-05-19T08:05:46.314Z,1.00
2023-05-19T08:08:17.006Z,1.20
2023-05-19T08:10:44.980Z,1.17
2023-05-19T08:13:12.813Z,1.10
2023-05-19T08:15:42.714Z,0.93
2023-05-19T08:18:10.658Z,1.10
2023-05-19T08:20:38.766Z,0.93
2023-05-19T08:23:06.590Z,1.10
2023-05-19T08:25:34.333Z,1.10
2023-05-19T08:28:02.481Z,1.00
2023-05-19T08:30:30.416Z,1.20
2023-05-19T08:33:00.087Z,1.20
2023-05-19T08:35:28.056Z,1.03
2023-05-19T08:37:55.871Z,1.10
2023-05-19T08:40:24.543Z,1.10
2023-05-19T08:42:52.322Z,1.10
2023-05-19T08:45:20.548Z,1.13
2023-05-19T08:47:48.422Z,1.10
2023-05-19T08:50:22.961Z,1.30
2023-05-19T08:52:53.770Z,0.90
2023-05-19T08:55:34.030Z,1.07
2023-05-19T08:58:02.499Z,1.07
2023-05-19T09:00:32.025Z,1.30
2023-05-19T09:05:35.922Z,1.03
2023-05-19T09:08:05.639Z,1.10
2023-05-19T09:10:33.506Z,0.90
2023-05-19T09:13:01.506Z,0.90
2023-05-19T09:15:32.707Z,1.00
2023-05-19T09:18:11.578Z,1.20
2023-05-19T09:20:41.855Z,0.90
2023-05-19T09:23:14.838Z,1.10
2023-05-19T09:25:49.425Z,1.10
2023-05-19T09:28:24.745Z,1.17
2023-05-19T09:31:01.493Z,1.10
2023-05-19T09:33:29.634Z,1.10
2023-05-19T09:35:59.034Z,1.00
2023-05-19T09:38:27.242Z,0.90
2023-05-19T09:40:57.076Z,1.10
2023-05-19T09:43:24.886Z,0.80
2023-05-19T09:45:56.805Z,0.80
2023-05-19T09:48:27.711Z,1.10
2023-05-19T09:50:56.708Z,0.97
2023-05-19T09:53:26.432Z,0.80
2023-05-19T09:55:57.849Z,0.90
2023-05-19T09:58:26.286Z,1.00
2023-05-19T10:00:55.782Z,0.80
2023-05-19T10:03:24.523Z,1.17
2023-05-19T10:05:54.314Z,0.93
2023-05-19T10:08:24.500Z,0.90
2023-05-19T10:10:53.873Z,1.00
2023-05-19T10:13:23.016Z,0.90
2023-05-19T10:18:24.735Z,1.30
2023-05-19T10:20:53.736Z,0.93
2023-05-19T10:23:22.484Z,1.00
2023-05-19T10:25:53.618Z,1.00
2023-05-19T10:28:28.341Z,1.00
2023-05-19T10:31:00.944Z,1.20
2023-05-19T10:33:43.085Z,0.90
2023-05-19T10:36:33.810Z,1.10
2023-05-19T10:39:06.945Z,0.90
2023-05-19T10:41:45.000Z,0.95
2023-05-19T10:44:22.772Z,1.00
2023-05-19T10:46:52.505Z,1.10
2023-05-19T10:49:22.597Z,0.90
2023-05-19T10:51:51.090Z,0.80
2023-05-19T10:54:19.571Z,0.80
2023-05-19T10:56:50.626Z,0.90
2023-05-19T10:59:37.125Z,1.30
2023-05-19T11:02:05.789Z,0.80
2023-05-19T11:04:49.588Z,0.80
2023-05-19T11:07:21.021Z,0.82
2023-05-19T11:09:52.599Z,0.70
2023-05-19T11:12:25.566Z,0.63
2023-05-19T11:14:55.418Z,1.00
2023-05-19T11:17:27.335Z,0.73
2023-05-19T11:19:59.164Z,1.00
2023-05-19T11:22:28.187Z,0.80
2023-05-19T11:24:56.449Z,0.80
2023-05-19T11:27:28.167Z,1.00
2023-05-19T11:29:57.462Z,0.70
2023-05-19T11:32:29.297Z,0.80
2023-05-19T11:34:57.923Z,0.70
2023-05-19T11:37:25.983Z,1.00
2023-05-19T11:39:54.283Z,0.70
2023-05-19T11:42:22.226Z,0.80
2023-05-19T11:44:51.490Z,0.65
2023-05-19T11:47:19.509Z,0.80
2023-05-19T11:49:49.534Z,0.80
2023-05-19T11:52:17.547Z,0.70
2023-05-19T11:54:49.896Z,0.80
2023-05-19T11:57:18.450Z,0.90
2023-05-19T11:59:49.866Z,0.82
2023-05-19T12:02:20.662Z,1.10
2023-05-19T12:04:49.422Z,0.85
2023-05-19T12:07:18.891Z,0.80
2023-05-19T12:09:47.543Z,0.98
2023-05-19T12:12:17.251Z,0.85
2023-05-19T12:14:45.464Z,0.75
2023-05-19T12:17:15.097Z,0.88
2023-05-19T12:19:46.131Z,0.90
2023-05-19T12:22:15.857Z,0.90
2023-05-19T12:24:44.970Z,0.90
2023-05-19T12:27:14.065Z,1.00
2023-05-19T12:29:41.990Z,1.00
2023-05-19T12:32:10.585Z,0.90
2023-05-19T12:34:39.152Z,0.88
2023-05-19T12:37:08.393Z,0.73
2023-05-19T12:39:37.278Z,0.80
2023-05-19T12:42:08.848Z,0.95
2023-05-19T12:44:38.749Z,0.82
2023-05-19T12:47:08.194Z,0.85
2023-05-19T12:49:35.891Z,0.70
2023-05-19T12:52:07.099Z,0.90
2023-05-19T12:54:40.476Z,0.88
2023-05-19T12:57:08.519Z,0.90
2023-05-19T12:59:38.857Z,0.90
2023-05-19T13:02:07.509Z,0.80
2023-05-19T13:04:36.185Z,0.80
2023-05-19T13:07:03.995Z,0.90
2023-05-19T13:09:35.025Z,0.70
2023-05-19T13:12:04.840Z,1.02
2023-05-19T13:14:32.716Z,1.00
2023-05-19T13:17:00.668Z,0.77
2023-05-19T13:19:28.658Z,0.80
2023-05-19T13:21:56.626Z,0.90
2023-05-19T13:24:24.329Z,0.80
2023-05-19T13:26:53.870Z,0.90
2023-05-19T13:29:23.080Z,1.00
2023-05-19T13:31:50.996Z,0.80
2023-05-19T13:34:19.877Z,0.90
2023-05-19T13:36:48.891Z,1.02
2023-05-19T13:39:16.847Z,0.73
2023-05-19T13:41:44.564Z,0.70
2023-05-19T13:44:12.407Z,0.70
2023-05-19T13:46:45.597Z,0.80
2023-05-19T13:49:14.335Z,0.80
2023-05-19T13:51:44.093Z,0.90
2023-05-19T13:54:11.949Z,0.90
2023-05-19T13:56:40.722Z,0.90
2023-05-19T13:59:08.532Z,1.00
2023-05-19T14:01:37.103Z,0.80
2023-05-19T14:04:07.210Z,0.80
2023-05-19T14:06:35.122Z,0.68
2023-05-19T14:09:02.897Z,0.70
2023-05-19T14:11:30.643Z,0.80
2023-05-19T14:13:58.677Z,0.80
2023-05-19T14:16:28.727Z,0.60
2023-05-19T14:18:56.555Z,0.70
2023-05-19T14:21:25.987Z,0.77
2023-05-19T14:23:53.845Z,0.88
2023-05-19T14:26:22.052Z,0.70
2023-05-19T14:28:49.841Z,0.80
2023-05-19T14:31:17.669Z,0.80
2023-05-19T14:33:45.531Z,0.93
2023-05-19T14:36:13.333Z,0.90
2023-05-19T14:38:42.511Z,1.13
2023-05-19T14:41:10.514Z,0.80
2023-05-19T14:43:38.356Z,0.93
2023-05-19T14:46:06.357Z,0.80
2023-05-19T14:48:34.071Z,0.90
2023-05-19T14:51:01.804Z,0.90
2023-05-19T14:53:29.677Z,0.80
2023-05-19T14:55:58.912Z,0.98
2023-05-19T14:58:29.199Z,2.28
2023-05-19T15:00:59.084Z,0.80
2023-05-19T15:03:27.313Z,0.98
2023-05-19T15:05:55.124Z,0.90
2023-05-19T15:08:23.432Z,0.85
2023-05-19T15:10:51.576Z,0.70
2023-05-19T15:13:21.560Z,0.68
2023-05-19T15:15:49.476Z,0.90
2023-05-19T15:18:18.649Z,0.88
2023-05-19T15:20:46.769Z,0.90
2023-05-19T15:23:14.654Z,0.90
2023-05-19T15:25:42.767Z,0.80
2023-05-19T15:28:10.610Z,1.02
2023-05-19T15:30:40.103Z,1.10
2023-05-19T15:33:08.001Z,1.00
2023-05-19T15:35:35.791Z,1.20
2023-05-19T15:38:06.272Z,0.93
2023-05-19T15:40:34.602Z,1.00
2023-05-19T15:43:02.988Z,0.80
2023-05-19T15:45:30.822Z,0.90
2023-05-19T15:47:59.958Z,0.90
2023-05-19T15:50:27.817Z,0.85
2023-05-19T15:52:55.602Z,0.95
2023-05-19T15:55:23.365Z,0.80
2023-05-19T15:57:51.373Z,0.80
2023-05-19T16:00:19.932Z,0.90
2023-05-19T16:02:51.734Z,0.98
2023-05-19T16:05:22.344Z,1.10
2023-05-19T16:07:50.660Z,0.80
2023-05-19T16:10:18.465Z,1.10
2023-05-19T16:12:46.250Z,0.95
2023-05-19T16:15:14.055Z,1.42
2023-05-19T16:17:43.888Z,0.90
2023-05-19T16:20:13.327Z,0.90
2023-05-19T16:22:45.090Z,0.88
2023-05-19T16:25:15.979Z,1.10
2023-05-19T16:27:46.460Z,1.00
2023-05-19T16:30:16.571Z,0.80
2023-05-19T16:32:47.025Z,0.95
2023-05-19T16:35:21.300Z,1.10
2023-05-19T16:37:53.144Z,0.90
2023-05-19T16:40:22.054Z,0.80
2023-05-19T16:42:49.809Z,1.20
2023-05-19T16:45:18.358Z,0.88
2023-05-19T16:47:47.740Z,0.85
2023-05-19T16:50:16.130Z,0.80
2023-05-19T16:52:43.971Z,1.10
2023-05-19T16:55:17.826Z,1.10
2023-05-19T16:57:45.573Z,0.90
2023-05-19T17:00:17.071Z,1.00
2023-05-19T17:02:45.103Z,0.90
2023-05-19T17:05:13.391Z,1.00
2023-05-19T17:07:44.835Z,0.98
2023-05-19T17:10:14.512Z,1.00
2023-05-19T17:12:43.867Z,0.90
2023-05-19T17:15:13.334Z,0.90
2023-05-19T17:17:46.335Z,0.80
2023-05-19T17:20:15.226Z,0.80
2023-05-19T17:22:47.207Z,0.80
2023-05-19T17:25:19.110Z,0.90
2023-05-19T17:27:47.212Z,1.10
2023-05-19T17:30:15.093Z,1.63
2023-05-19T17:32:45.606Z,0.90
2023-05-19T17:35:13.782Z,1.17
2023-05-19T17:37:42.394Z,1.00
2023-05-19T17:40:11.583Z,1.20
2023-05-19T17:42:41.440Z,1.00
2023-05-19T17:45:12.680Z,0.90
2023-05-19T17:47:40.681Z,1.10
2023-05-19T17:50:11.007Z,1.80
2023-05-19T17:52:41.712Z,0.95
2023-05-19T17:55:19.137Z,0.90
2023-05-19T17:57:50.905Z,0.97
2023-05-19T18:00:22.241Z,1.07
2023-05-19T18:02:51.106Z,1.10
2023-05-19T18:05:22.455Z,1.00
2023-05-19T18:07:52.804Z,1.10
2023-05-19T18:10:21.677Z,1.00
2023-05-19T18:12:51.438Z,0.87
2023-05-19T18:15:19.251Z,0.97
2023-05-19T18:17:47.195Z,1.00
2023-05-19T18:20:18.290Z,0.87
2023-05-19T18:22:46.996Z,1.10
2023-05-19T18:25:15.272Z,0.90
2023-05-19T18:27:43.992Z,1.00
2023-05-19T18:30:13.814Z,0.93
2023-05-19T18:32:42.018Z,1.20
2023-05-19T18:35:10.808Z,1.30
2023-05-19T18:37:38.862Z,1.30
2023-05-19T18:40:07.987Z,1.10
2023-05-19T18:42:35.945Z,1.00
2023-05-19T18:45:03.854Z,1.00
2023-05-19T18:47:33.404Z,1.00
2023-05-19T18:50:01.765Z,0.97
2023-05-19T18:52:31.332Z,0.90
2023-05-19T18:55:01.392Z,1.00
2023-05-19T18:57:29.464Z,1.10
2023-05-19T18:59:58.169Z,1.60
2023-05-19T19:02:26.568Z,1.00
2023-05-19T19:04:56.112Z,1.00
2023-05-19T19:07:25.435Z,0.90
2023-05-19T19:09:53.301Z,1.00
2023-05-19T19:12:21.313Z,0.90
2023-05-19T19:14:49.254Z,1.27
2023-05-19T19:17:17.981Z,0.80
2023-05-19T19:19:47.236Z,1.00
2023-05-19T19:22:17.087Z,1.10
2023-05-19T19:24:44.941Z,0.90
2023-05-19T19:27:16.223Z,1.00
2023-05-19T19:29:44.315Z,1.10
2023-05-19T19:32:13.395Z,1.20
2023-05-19T19:34:41.880Z,1.07
2023-05-19T19:37:11.192Z,1.00
2023-05-19T19:39:40.357Z,1.07
2023-05-19T19:42:08.161Z,1.00
2023-05-19T19:44:36.143Z,1.10
2023-05-19T19:47:06.160Z,1.10
2023-05-19T19:49:34.604Z,1.10
2023-05-19T19:52:02.733Z,1.30
2023-05-19T19:54:30.763Z,0.90
2023-05-19T19:56:59.881Z,1.30
2023-05-19T19:59:27.973Z,1.10
2023-05-19T20:01:56.210Z,1.40
2023-05-19T20:04:27.145Z,1.00
2023-05-19T20:06:55.242Z,1.20
2023-05-19T20:09:26.602Z,1.60
2023-05-19T20:11:54.930Z,1.10
2023-05-19T20:14:27.790Z,1.20
2023-05-19T20:16:56.513Z,1.17
2023-05-19T20:19:27.586Z,1.10
2023-05-19T20:21:55.908Z,1.20
2023-05-19T20:24:24.954Z,1.20
2023-05-19T20:26:53.298Z,1.40
2023-05-19T20:29:34.607Z,1.40
2023-05-19T20:32:04.123Z,1.30
2023-05-19T20:34:38.569Z,1.30
2023-05-19T20:37:09.543Z,1.23
2023-05-19T20:39:37.644Z,1.30
2023-05-19T20:42:07.995Z,1.43
2023-05-19T20:44:37.445Z,1.27
2023-05-19T20:47:08.325Z,1.60
2023-05-19T20:49:40.885Z,1.50
2023-05-19T20:52:09.463Z,1.47
2023-05-19T20:54:39.570Z,1.30
2023-05-19T20:57:09.374Z,1.60
2023-05-19T20:59:40.447Z,1.60
2023-05-19T21:02:19.018Z,1.60
2023-05-19T21:04:49.370Z,1.53
2023-05-19T21:07:22.026Z,1.63
2023-05-19T21:09:52.566Z,1.60
2023-05-19T21:12:24.042Z,1.73
2023-05-19T21:14:52.440Z,1.73
2023-05-19T21:17:21.945Z,1.60
2023-05-19T21:19:57.707Z,1.87
2023-05-19T21:22:29.730Z,1.63
2023-05-19T21:24:58.210Z,1.57
2023-05-19T21:27:36.524Z,1.60
2023-05-19T21:30:11.061Z,1.40
2023-05-19T21:32:44.438Z,1.60
2023-05-19T21:35:16.072Z,1.60
2023-05-19T21:37:48.298Z,1.97
2023-05-19T21:40:24.234Z,1.80
2023-05-19T21:43:06.109Z,1.60
2023-05-19T21:48:38.636Z,1.83
2023-05-19T21:51:23.136Z,1.60
2023-05-19T21:53:56.846Z,1.60
2023-05-19T21:56:27.495Z,1.50
2023-05-19T21:59:01.870Z,1.70
2023-05-19T22:01:35.203Z,1.67
2023-05-19T22:04:19.217Z,2.00
2023-05-19T22:06:48.804Z,1.93
2023-05-19T22:09:18.855Z,2.13
2023-05-19T22:11:50.195Z,1.50
2023-05-19T22:14:18.614Z,1.60
2023-05-19T22:16:55.713Z,1.90
2023-05-19T22:19:25.756Z,1.80
2023-05-19T22:22:13.309Z,1.40
2023-05-19T22:24:49.905Z,1.53
2023-05-19T22:27:21.064Z,1.60
2023-05-19T22:29:54.386Z,1.80
2023-05-19T22:32:22.891Z,1.60
2023-05-19T22:34:56.344Z,1.67
2023-05-19T22:37:24.656Z,2.00
2023-05-19T22:39:55.205Z,1.70
2023-05-19T22:42:23.282Z,1.90
2023-05-19T22:44:57.478Z,2.00
2023-05-19T22:47:26.728Z,1.80
2023-05-19T22:50:02.756Z,1.60
2023-05-19T22:52:37.191Z,1.93
2023-05-19T22:55:09.920Z,1.70
2023-05-19T22:57:39.153Z,2.20
2023-05-19T23:00:14.374Z,1.90
2023-05-19T23:02:49.242Z,1.70
2023-05-19T23:05:22.298Z,1.80
2023-05-19T23:08:11.345Z,1.87
2023-05-19T23:10:41.176Z,1.73
2023-05-19T23:13:20.442Z,1.97
2023-05-19T23:15:53.141Z,2.20
2023-05-19T23:18:23.109Z,1.70
2023-05-19T23:20:58.058Z,2.00
2023-05-19T23:23:29.233Z,1.80
2023-05-19T23:26:00.744Z,1.93
2023-05-19T23:28:29.093Z,2.10
2023-05-19T23:31:03.104Z,1.60
2023-05-19T23:33:31.301Z,2.13
2023-05-19T23:36:05.191Z,2.20
2023-05-19T23:38:44.507Z,1.60
2023-05-19T23:41:12.801Z,1.83
2023-05-19T23:43:43.018Z,2.00
2023-05-19T23:46:14.923Z,2.20
2023-05-19T23:48:44.427Z,2.00
2023-05-19T23:51:18.176Z,2.10
2023-05-19T23:53:49.905Z,1.73
2023-05-19T23:56:19.195Z,2.27
2023-05-19T23:58:49.117Z,2.30
